Aviation Digital Data Service (ADDS)

Output produced by METARs form (1920 UTC 23 July 2017)
found at http://www.aviationweather.gov/adds/metars/
 
KFIG 231854Z AUTO 23009KT 10SM FEW037 29/21 A2980 RMK AO2 LTG DSNT SW SLP079 T02940206
KFIG 231754Z AUTO 22008KT 10SM FEW037 FEW046 SCT070 28/21 A2982 RMK AO2 SLP087 T02780206 10283 20206 58002
KFIG 231654Z AUTO 25009KT 10SM FEW026 SCT055 BKN070 27/21 A2983 RMK AO2 SLP091 T02670206
KFIG 231554Z AUTO 22008KT 10SM FEW021 SCT027 BKN036 26/22 A2984 RMK AO2 SLP093 T02560217
KFIG 231530Z AUTO 24008G15KT 10SM FEW014 SCT023 OVC070 27/22 A2983 RMK AO2 T02670222
KFIG 231454Z AUTO 23007KT 10SM SCT011 SCT017 BKN022 24/22 A2983 RMK AO2 SLP091 T02440222 50000
KFIG 231442Z AUTO 24007KT 10SM FEW009 BKN013 BKN021 24/22 A2983 RMK AO2 T02440222
KFIG 231421Z AUTO 18004KT 9SM FEW011 SCT016 BKN021 24/23 A2983 RMK AO2 T02390228
KFIG 231403Z AUTO VRB04KT 8SM FEW005 SCT025 BKN060 23/23 A2983 RMK AO2 T02330228
KFIG 231354Z AUTO VRB03KT 6SM BR SCT005 BKN020 BKN038 23/22 A2984 RMK AO2 SLP094 T02280222
KFIG 231347Z AUTO 21004KT 6SM BR SCT004 BKN021 23/22 A2984 RMK AO2 T02280222
KFIG 231254Z AUTO 00000KT 4SM BR OVC003 22/21 A2984 RMK AO2 SLP095 T02170211
KFIG 231154Z AUTO 00000KT 6SM BR OVC004 21/21 A2983 RMK AO2 RAE15 SLP091 P0000 60002 70074 T02110206 10211 20200 53004
KFIG 231136Z AUTO 00000KT 6SM BR OVC003 21/21 A2983 RMK AO2 RAE15 P0000 T02060206
KFIG 231129Z AUTO 00000KT 2 1/2SM BR OVC003 20/20 A2983 RMK AO2 RAE15 P0000 T02000200
KFIG 231119Z AUTO 00000KT 3/4SM BR OVC004 20/20 A2982 RMK AO2 RAE15 P0000 T02000200
KFIG 231116Z AUTO 34003KT 2 1/2SM BR OVC004 20/20 A2982 RMK AO2 RAE15 P0000 T02000200
KFIG 231106Z AUTO 00000KT 5SM -RA BR OVC002 20/20 A2982 RMK AO2 P0000 T02000200
KFIG 231054Z AUTO 00000KT 3SM -RA BR OVC004 20/20 A2982 RMK AO2 RAB53 SLP088 P0000 T02000200
KFIG 231037Z AUTO 00000KT 6SM BR BKN004 OVC014 20/20 A2981 RMK AO2 T02000200
KFIG 231030Z AUTO 00000KT 2SM BR SCT004 BKN007 OVC014 20/20 A2981 RMK AO2 T02000200
KFIG 231027Z AUTO 00000KT 1SM BR SCT004 OVC014 20/20 A2981 RMK AO2 T02000200
KFIG 231017Z AUTO 01003KT 1/2SM FG BKN004 OVC013 20/20 A2981 RMK AO2 T02000200
KFIG 231013Z AUTO 35004KT 1 1/4SM BR FEW002 BKN007 OVC013 20/20 A2981 RMK AO2 T02000200
KFIG 231005Z AUTO 01004KT 1 1/2SM BR OVC013 20/20 A2981 RMK AO2 T02000200
KFIG 230954Z AUTO 36004KT 1 1/4SM BR BKN009 OVC013 20/20 A2981 RMK AO2 SLP084 T02000200
KFIG 230945Z AUTO 00000KT 1 3/4SM BR BKN007 OVC013 20/20 A2980 RMK AO2 T02000200
KFIG 230921Z AUTO 00000KT 6SM BR BKN007 BKN011 OVC020 20/20 A2981 RMK AO2 T02000200
KFIG 230914Z AUTO 00000KT 2 1/2SM BR BKN008 BKN011 OVC035 20/20 A2981 RMK AO2 T02000200
KFIG 230901Z AUTO 36003KT 1/2SM FG BKN008 BKN026 OVC035 20/20 A2982 RMK AO2 T02000200
KFIG 230854Z AUTO 01003KT 1SM BR FEW008 BKN026 OVC035 20/20 A2982 RMK AO2 SLP087 60002 T02000200 53001
KFIG 230848Z AUTO 03003KT 1 1/2SM BR SCT008 BKN020 OVC026 20/20 A2981 RMK AO2
KFIG 230828Z AUTO 00000KT 6SM BR FEW008 OVC026 20/20 A2981 RMK AO2 T02000200
KFIG 230759Z AUTO 00000KT 8SM SCT010 OVC021 20/20 A2980 RMK AO2 T02000200
KFIG 230754Z AUTO 05003KT 8SM BKN009 OVC021 20/20 A2980 RMK AO2 SLP081 T02000200
KFIG 230746Z AUTO 00000KT 7SM OVC009 20/20 A2980 RMK AO2 T02000200
KFIG 230739Z AUTO 00000KT 2 1/2SM BR OVC009 20/20 A2981 RMK AO2 T02000200
KFIG 230731Z AUTO 00000KT 1/2SM FG BKN009 OVC014 20/20 A2981 RMK AO2 T02000200
KFIG 230729Z AUTO 00000KT 1/4SM FG BKN010 OVC014 20/20 A2981 RMK AO2 T02000200
KFIG 230722Z AUTO 01003KT 1 1/4SM BR BKN010 OVC014 20/20 A2981 RMK AO2 T02000200
KFIG 230719Z AUTO 02003KT 7SM OVC010 20/20 A2981 RMK AO2 T02000200
KFIG 230657Z AUTO 36003KT 3SM BR SCT004 OVC009 20/20 A2981 RMK AO2 T02000200
KFIG 230654Z AUTO 34003KT 1 3/4SM BR SCT004 OVC009 20/20 A2981 RMK AO2 RAE15 SLP086 P0002 T02000200
KFIG 230652Z AUTO 00000KT 1SM BR SCT004 OVC011 20/20 A2981 RMK AO2 RAE15 P0002
KFIG 230641Z AUTO 34004KT 3/4SM BR FEW002 OVC012 20/20 A2981 RMK AO2 RAE15 P0002 T02000200
KFIG 230602Z AUTO 36005KT 3SM RA BR OVC014 20/20 A2982 RMK AO2 P0002 T02000200
KFIG 230554Z AUTO 02004KT 1 1/2SM -RA BR OVC014 20/20 A2981 RMK AO2 RAE48B54 SLP085 P0002 60018 T02000200 10206 20200 58004
KFIG 230549Z AUTO 02004KT 1 3/4SM BR OVC014 20/20 A2982 RMK AO2 VIS 3/4V5 RAE48 P0001
KFIG 230542Z AUTO 01003KT 4SM -RA BR OVC014 20/20 A2982 RMK AO2 P0001 T02000200
KFIG 230532Z AUTO 01004KT 1 3/4SM -RA BR FEW006 OVC012 20/20 A2982 RMK AO2 P0001 T02000200
KFIG 230521Z AUTO 05004KT 8SM -RA FEW002 OVC010 20/20 A2982 RMK AO2 P0001 T02000200
KFIG 230514Z AUTO 00000KT 4SM -RA BR FEW003 BKN007 OVC012 20/20 A2982 RMK AO2 P0000 T02000200
KFIG 230510Z AUTO 00000KT 1SM -RA BR SCT003 BKN007 OVC012 20/20 A2982 RMK AO2 P0000 T02000200
KFIG 230504Z AUTO 04004KT 3/4SM -RA BR BKN003 OVC012 20/20 A2983 RMK AO2 P0000 T02000200
KFIG 230500Z AUTO 02005KT 1 1/2SM -RA BR SCT003 OVC012 20/20 A2983 RMK AO2 P0000 T02000200
KFIG 230454Z AUTO 36004KT 7SM -RA SCT005 OVC012 20/20 A2983 RMK AO2 RAB21E43B48 SLP088 P0008 T02000200 402670178
KFIG 230445Z AUTO 04004KT 2SM BR SCT005 BKN013 OVC030 20/20 A2982 RMK AO2 RAB21E43 P0008 T02000200
KFIG 230439Z AUTO 00000KT 1SM -RA BR BKN004 BKN013 OVC025 20/20 A2983 RMK AO2 RAB21 P0008 T02000200
KFIG 230433Z AUTO 35003KT 2SM -RA BR FEW004 BKN013 OVC031 20/20 A2983 RMK AO2 RAB21 P0008 T02000200
KFIG 230429Z AUTO 03004KT 1 3/4SM RA BR FEW011 BKN016 OVC034 20/20 A2983 RMK AO2 RAB21 P0007 T02000200
KFIG 230421Z AUTO 00000KT 2 1/2SM -RA BR BKN014 BKN022 OVC030 20/20 A2982 RMK AO2 RAB21 P0005 T02000200
KFIG 230354Z AUTO 00000KT 10SM FEW007 SCT011 OVC019 20/20 A2983 RMK AO2 RAB0257E33B39E49 SLP090 P0008 T02000200
KFIG 230340Z AUTO 00000KT 5SM -RA BR FEW006 BKN019 OVC025 20/20 A2982 RMK AO2 RAB0257E33B39 P0008 T02000200
KFIG 230337Z AUTO 00000KT 2 1/2SM BR FEW006 BKN011 OVC025 20/20 A2982 RMK AO2 RAB0257E33 P0008 T02000200
KFIG 230334Z AUTO 00000KT 1 3/4SM BR FEW006 BKN020 OVC025 20/20 A2983 RMK AO2 RAB0257E33 P0008 T02000200
KFIG 230324Z AUTO 02003KT 3/4SM -RA BR FEW011 BKN020 OVC030 20/20 A2983 RMK AO2 RAB0257 P0008 T02000200
KFIG 230310Z AUTO 01004KT 2 1/2SM +RA BR SCT012 BKN026 OVC060 20/20 A2983 RMK AO2 VIS 1 3/4V5 RAB0257 P0005 T02000200
KFIG 230254Z AUTO 00000KT 8SM SCT014 BKN048 OVC070 20/20 A2983 RMK AO2 SLP091 T02000200 58001
KFIG 230247Z AUTO 35003KT 9SM SCT014 OVC065 20/20 A2983 RMK AO2 T02000200
KFIG 230154Z AUTO 08003KT 10SM SCT002 OVC014 20/20 A2984 RMK AO2 SLP094 T02000200
KFIG 230138Z AUTO 04003KT 3SM BR OVC002 21/21 A2983 RMK AO2 T02060206
KFIG 230114Z AUTO 00000KT 1 3/4SM BR OVC002 21/21 A2983 RMK AO2 VIS 1V5 T02060206
KFIG 230102Z AUTO 05004KT 8SM OVC002 21/21 A2984 RMK AO2 T02060206
KFIG 230054Z AUTO 00000KT 8SM OVC003 21/21 A2984 RMK AO2 SLP095 T02060206
KFIG 230037Z AUTO 04003KT 7SM BKN003 OVC050 21/21 A2984 RMK AO2 T02060206
KFIG 230026Z AUTO 00000KT 8SM SCT002 BKN042 OVC055 21/21 A2984 RMK AO2 T02060206
KFIG 230019Z AUTO 03004KT 9SM SCT013 BKN041 OVC050 21/21 A2983 RMK AO2 T02060206
KFIG 222354Z AUTO 02005KT 7SM SCT004 OVC011 21/21 A2983 RMK AO2 RAB2256E52 SLP094 P0004 60052 T02060206 10239 20206 53007
KFIG 222344Z AUTO 03004KT 3SM -RA BR BKN003 OVC013 21/21 A2983 RMK AO2 RAB2256 P0004 T02060206
KFIG 222330Z AUTO 01004KT 1SM RA BR FEW003 OVC013 21/21 A2983 RMK AO2 RAB2256 P0004 T02110206
KFIG 222308Z AUTO 00000KT 1 3/4SM -RA BR FEW003 OVC015 22/22 A2983 RMK AO2 RAB2256 P0001 T02170217
KFIG 222254Z AUTO 27003KT 8SM OVC015 22/21 A2982 RMK AO2 SLP090 T02170211
KFIG 222154Z AUTO 00000KT 10SM FEW005 BKN019 OVC025 22/22 A2981 RMK AO2 RAE31 SLP087 P0001 T02220217
KFIG 222138Z AUTO VRB03KT 10SM SCT005 BKN012 OVC029 22/22 A2981 RMK AO2 RAE31 P0001 T02220222
KFIG 222128Z AUTO 23004KT 7SM -RA FEW016 BKN024 OVC029 22/22 A2981 RMK AO2 P0001 T02170217
KFIG 222120Z AUTO 23005KT 2 1/2SM -RA BR FEW013 BKN023 OVC028 22/22 A2981 RMK AO2 P0001 T02170217
KFIG 222103Z AUTO 25006KT 3SM -RA BR SCT016 BKN022 OVC030 22/22 A2982 RMK AO2 P0001 T02170217
KFIG 222054Z AUTO 25007KT 1 1/2SM RA BR FEW004 BKN018 OVC023 22/22 A2983 RMK AO2 SLP092 P0026 60047 T02170217 55005
KFIG 222051Z AUTO 25007KT 1 1/4SM RA BR FEW004 BKN018 OVC023 22/21 A2983 RMK AO2 P0025
KFIG 222040Z AUTO 25009G15KT 1/2SM +RA FG SCT004 BKN017 OVC024 22/21 A2983 RMK AO2 P0021 T02170211
KFIG 222036Z AUTO 26007KT 1/2SM +RA FG SCT004 BKN008 OVC024 22/22 A2983 RMK AO2 P0017 T02170217
KFIG 222031Z AUTO 30007KT 1SM RA BR BKN004 BKN008 OVC014 22/22 A2983 RMK AO2 P0009 T02170217
KFIG 222015Z AUTO 22005KT 2SM -RA BR SCT003 BKN009 OVC016 22/22 A2982 RMK AO2 P0002 T02170217
KFIG 222013Z AUTO 22006KT 2SM -RA BR BKN003 BKN009 OVC016 22/22 A2982 RMK AO2 P0002 T02170217
KFIG 221954Z AUTO 20006KT 1 3/4SM RA BR SCT005 BKN008 OVC023 22/22 A2982 RMK AO2 RAE09B16 SLP091 P0006 T02170217
KFIG 221941Z AUTO VRB05KT 2 1/2SM RA BR FEW005 BKN008 OVC024 22/22 A2983 RMK AO2 RAE09B16 CIG 006V013 P0004 T02170217
KFIG 221924Z AUTO 20007KT 2 1/2SM RA BR SCT009 BKN025 OVC035 23/22 A2984 RMK AO2 RAE09B16 P0002 T02280222
KFIG 221914Z AUTO 20006KT 7SM FEW009 BKN034 OVC048 23/23 A2984 RMK AO2 RAE09 P0000 T02330228
KFIG 221903Z AUTO 19004KT 5SM -RA BR FEW010 BKN034 OVC040 23/22 A2984 RMK AO2 P0000 T02280222
KFIG 221854Z AUTO 20003KT 5SM -RA BR SCT008 BKN021 OVC039 23/23 A2985 RMK AO2 RAB1757 SLP097 P0015 T02280228
KFIG 221834Z AUTO 23004KT 5SM -RA BR BKN019 OVC031 23/22 A2985 RMK AO2 RAB1757 P0015 T02280222
KFIG 221826Z AUTO VRB06KT 2SM -RA BR SCT018 BKN026 OVC037 22/22 A2986 RMK AO2 RAB1757 P0015 T02220217
KFIG 221821Z AUTO 18008KT 3/4SM RA BR SCT018 BKN034 OVC075 22/22 A2985 RMK AO2 RAB1757 P0014 T02220217
KFIG 221810Z AUTO 21011G17KT 1 3/4SM +RA BR SCT022 BKN045 OVC070 23/22 A2986 RMK AO2 LTG DSNT W RAB1757 P0005 T02330222
KFIG 221754Z AUTO VRB04KT 4SM BR BKN022 BKN060 OVC085 24/23 A2985 RMK AO2 RAB1658E54 SLP099 P0002 60002 T02390228 10267 20200 56028
KFIG 221654Z AUTO 20005KT 7SM SCT110 26/22 A2991 RMK AO2 SLP116 T02610217
KFIG 221627Z AUTO 00000KT 8SM FEW019 SCT027 BKN120 25/22 A2992 RMK AO2 T02500217
KFIG 221554Z AUTO 00000KT 8SM FEW014 BKN029 OVC045 24/22 A2994 RMK AO2 SLP129 T02440217
KFIG 221454Z AUTO 35004KT 7SM BKN020 OVC028 24/22 A2995 RMK AO2 SLP133 T02440217 58003
KFIG 221354Z AUTO 00000KT 6SM BR OVC019 23/21 A2997 RMK AO2 SLP137 T02280211
KFIG 221319Z AUTO 00000KT 5SM BR SCT003 OVC018 22/21 A2998 RMK AO2 T02170211
KFIG 221254Z AUTO 00000KT 6SM BR OVC003 22/21 A2998 RMK AO2 SLP140 T02170206
KFIG 221154Z AUTO 02003KT 8SM OVC003 20/19 A2996 RMK AO2 SLP135 T02000194 10206 20178 53001
KFIG 221150Z AUTO 03003KT 7SM OVC003 19/19 A2996 RMK AO2
KFIG 221116Z AUTO 35004KT 3SM BR OVC002 18/18 A2997 RMK AO2 T01830183
KFIG 221113Z AUTO 36004KT 1SM BR VV002 18/18 A2997 RMK AO2 T01830183
KFIG 221105Z AUTO 36005KT 1/4SM FG VV002 18/18 A2997 RMK AO2 VIS M1/4V3 T01830183
KFIG 221054Z AUTO 35004KT 1 3/4SM BR OVC002 18/18 A2996 RMK AO2 VIS 3/4V4 SLP135 T01830183
KFIG 221041Z AUTO 35004KT 1 3/4SM BR OVC002 18/18 A2996 RMK AO2 VIS 3/4V5 T01830183
KFIG 220954Z AUTO 33003KT 7SM OVC002 18/18 A2997 RMK AO2 SLP138 T01830183
KFIG 220935Z AUTO 00000KT 7SM OVC002 19/19 A2997 RMK AO2 T01890189
KFIG 220904Z AUTO 00000KT 3SM BR BKN003 18/18 A2998 RMK AO2 T01830183
KFIG 220854Z AUTO 00000KT 1/2SM FG VV003 18/18 A2997 RMK AO2 VIS 1/4V2 1/2 SLP138 T01830183 55009
KFIG 220847Z AUTO 01003KT 1SM BR VV003 18/18 A2997 RMK AO2 VIS 1/4V5 T01830183
KFIG 220837Z AUTO 00000KT 2 1/2SM BR OVC002 18/18 A2997 RMK AO2 T01830183
KFIG 220822Z AUTO 01003KT 3/4SM BR VV002 18/18 A2997 RMK AO2 T01780178
KFIG 220815Z AUTO 36005KT 2SM BR OVC002 18/18 A2997 RMK AO2 T01830183
KFIG 220802Z AUTO 00000KT 1/2SM FG VV002 19/19 A2996 RMK AO2 T01890189
KFIG 220754Z AUTO 00000KT 1 1/2SM BR BKN001 18/18 A2996 RMK AO2 SLP134 T01830183